sensor_id;sensor_type;location;lat;lon;timestamp;P1;durP1;ratioP1;P2;durP2;ratioP2
19339;SDS011;9804;52.350;6.684;2023-05-10T00:01:10;15.00;;;11.50;;
19339;SDS011;9804;52.350;6.684;2023-05-10T00:03:35;14.48;;;11.02;;
19339;SDS011;9804;52.350;6.684;2023-05-10T00:06:01;13.10;;;10.10;;
19339;SDS011;9804;52.350;6.684;2023-05-10T00:08:26;13.27;;;9.52;;
19339;SDS011;9804;52.350;6.684;2023-05-10T00:10:52;10.85;;;8.88;;
19339;SDS011;9804;52.350;6.684;2023-05-10T00:13:17;12.73;;;10.13;;
19339;SDS011;9804;52.350;6.684;2023-05-10T00:15:43;14.45;;;10.70;;
19339;SDS011;9804;52.350;6.684;2023-05-10T00:18:08;15.50;;;10.85;;
19339;SDS011;9804;52.350;6.684;2023-05-10T00:20:34;16.20;;;11.55;;
19339;SDS011;9804;52.350;6.684;2023-05-10T00:22:59;18.05;;;11.38;;
19339;SDS011;9804;52.350;6.684;2023-05-10T00:25:24;16.60;;;11.88;;
19339;SDS011;9804;52.350;6.684;2023-05-10T00:27:50;15.65;;;11.82;;
19339;SDS011;9804;52.350;6.684;2023-05-10T00:30:15;17.15;;;12.70;;
19339;SDS011;9804;52.350;6.684;2023-05-10T00:32:41;18.20;;;13.50;;
19339;SDS011;9804;52.350;6.684;2023-05-10T00:35:07;18.70;;;12.98;;
19339;SDS011;9804;52.350;6.684;2023-05-10T00:37:32;19.95;;;13.85;;
19339;SDS011;9804;52.350;6.684;2023-05-10T00:39:58;19.63;;;13.52;;
19339;SDS011;9804;52.350;6.684;2023-05-10T00:42:23;20.35;;;14.02;;
19339;SDS011;9804;52.350;6.684;2023-05-10T00:44:48;21.20;;;14.48;;
19339;SDS011;9804;52.350;6.684;2023-05-10T00:47:14;20.17;;;14.25;;
19339;SDS011;9804;52.350;6.684;2023-05-10T00:49:40;20.23;;;14.32;;
19339;SDS011;9804;52.350;6.684;2023-05-10T00:52:06;23.33;;;14.20;;
19339;SDS011;9804;52.350;6.684;2023-05-10T00:54:32;24.10;;;15.48;;
19339;SDS011;9804;52.350;6.684;2023-05-10T00:56:58;23.35;;;15.50;;
19339;SDS011;9804;52.350;6.684;2023-05-10T00:59:23;23.10;;;15.13;;
19339;SDS011;9804;52.350;6.684;2023-05-10T01:01:49;20.95;;;15.20;;
19339;SDS011;9804;52.350;6.684;2023-05-10T01:04:16;20.50;;;14.85;;
19339;SDS011;9804;52.350;6.684;2023-05-10T01:06:45;22.95;;;14.65;;
19339;SDS011;9804;52.350;6.684;2023-05-10T01:09:10;22.85;;;15.35;;
19339;SDS011;9804;52.350;6.684;2023-05-10T01:11:36;20.85;;;14.65;;
19339;SDS011;9804;52.350;6.684;2023-05-10T01:14:03;21.92;;;15.18;;
19339;SDS011;9804;52.350;6.684;2023-05-10T01:16:29;22.17;;;15.45;;
19339;SDS011;9804;52.350;6.684;2023-05-10T01:18:58;23.63;;;15.77;;
19339;SDS011;9804;52.350;6.684;2023-05-10T01:21:38;23.88;;;15.63;;
19339;SDS011;9804;52.350;6.684;2023-05-10T01:24:17;24.55;;;16.10;;
19339;SDS011;9804;52.350;6.684;2023-05-10T01:37:46;23.08;;;15.35;;
19339;SDS011;9804;52.350;6.684;2023-05-10T01:43:01;23.85;;;15.50;;
19339;SDS011;9804;52.350;6.684;2023-05-10T01:45:37;22.55;;;14.85;;
19339;SDS011;9804;52.350;6.684;2023-05-10T01:48:12;25.92;;;15.68;;
19339;SDS011;9804;52.350;6.684;2023-05-10T01:50:40;26.90;;;16.35;;
19339;SDS011;9804;52.350;6.684;2023-05-10T01:53:09;24.52;;;16.40;;
19339;SDS011;9804;52.350;6.684;2023-05-10T01:55:39;25.48;;;15.82;;
19339;SDS011;9804;52.350;6.684;2023-05-10T01:58:19;27.35;;;16.83;;
19339;SDS011;9804;52.350;6.684;2023-05-10T02:00:47;26.60;;;15.85;;
19339;SDS011;9804;52.350;6.684;2023-05-10T02:03:15;26.08;;;16.15;;
19339;SDS011;9804;52.350;6.684;2023-05-10T02:05:43;23.67;;;15.50;;
19339;SDS011;9804;52.350;6.684;2023-05-10T02:08:10;25.88;;;15.77;;
19339;SDS011;9804;52.350;6.684;2023-05-10T02:10:36;25.63;;;16.08;;
19339;SDS011;9804;52.350;6.684;2023-05-10T02:13:04;26.70;;;15.88;;
19339;SDS011;9804;52.350;6.684;2023-05-10T02:15:32;30.23;;;16.17;;
19339;SDS011;9804;52.350;6.684;2023-05-10T02:17:58;25.67;;;15.60;;
19339;SDS011;9804;52.350;6.684;2023-05-10T02:20:25;25.67;;;16.35;;
19339;SDS011;9804;52.350;6.684;2023-05-10T02:22:51;27.20;;;16.25;;
19339;SDS011;9804;52.350;6.684;2023-05-10T02:25:19;27.45;;;16.70;;
19339;SDS011;9804;52.350;6.684;2023-05-10T02:27:46;28.08;;;16.10;;
19339;SDS011;9804;52.350;6.684;2023-05-10T02:30:12;25.48;;;16.30;;
19339;SDS011;9804;52.350;6.684;2023-05-10T02:32:38;26.42;;;16.65;;
19339;SDS011;9804;52.350;6.684;2023-05-10T02:35:04;30.25;;;17.40;;
19339;SDS011;9804;52.350;6.684;2023-05-10T02:37:31;28.55;;;17.55;;
19339;SDS011;9804;52.350;6.684;2023-05-10T02:39:57;32.80;;;17.42;;
19339;SDS011;9804;52.350;6.684;2023-05-10T02:42:24;31.48;;;17.63;;
19339;SDS011;9804;52.350;6.684;2023-05-10T02:44:53;28.38;;;17.17;;
19339;SDS011;9804;52.350;6.684;2023-05-10T02:47:21;27.60;;;16.58;;
19339;SDS011;9804;52.350;6.684;2023-05-10T02:49:47;26.15;;;16.52;;
19339;SDS011;9804;52.350;6.684;2023-05-10T02:52:12;29.65;;;16.80;;
19339;SDS011;9804;52.350;6.684;2023-05-10T02:54:43;30.65;;;16.50;;
19339;SDS011;9804;52.350;6.684;2023-05-10T02:57:15;31.33;;;17.77;;
19339;SDS011;9804;52.350;6.684;2023-05-10T02:59:43;27.50;;;16.98;;
19339;SDS011;9804;52.350;6.684;2023-05-10T03:02:09;30.75;;;17.05;;
19339;SDS011;9804;52.350;6.684;2023-05-10T03:04:37;31.02;;;17.15;;
19339;SDS011;9804;52.350;6.684;2023-05-10T03:07:02;32.53;;;16.83;;
19339;SDS011;9804;52.350;6.684;2023-05-10T03:09:28;31.92;;;17.35;;
19339;SDS011;9804;52.350;6.684;2023-05-10T03:17:29;35.25;;;17.85;;
19339;SDS011;9804;52.350;6.684;2023-05-10T03:20:09;34.33;;;18.20;;
19339;SDS011;9804;52.350;6.684;2023-05-10T03:22:38;38.03;;;20.02;;
19339;SDS011;9804;52.350;6.684;2023-05-10T03:25:10;38.47;;;20.42;;
19339;SDS011;9804;52.350;6.684;2023-05-10T03:27:36;35.58;;;19.13;;
19339;SDS011;9804;52.350;6.684;2023-05-10T03:30:05;38.70;;;19.55;;
19339;SDS011;9804;52.350;6.684;2023-05-10T03:32:33;47.03;;;22.42;;
19339;SDS011;9804;52.350;6.684;2023-05-10T03:34:59;41.95;;;21.55;;
19339;SDS011;9804;52.350;6.684;2023-05-10T03:37:25;42.35;;;21.38;;
19339;SDS011;9804;52.350;6.684;2023-05-10T03:39:50;40.85;;;21.00;;
19339;SDS011;9804;52.350;6.684;2023-05-10T03:42:15;50.65;;;22.95;;
19339;SDS011;9804;52.350;6.684;2023-05-10T03:44:42;49.45;;;24.00;;
19339;SDS011;9804;52.350;6.684;2023-05-10T03:47:08;51.55;;;23.67;;
19339;SDS011;9804;52.350;6.684;2023-05-10T03:49:33;47.50;;;23.35;;
19339;SDS011;9804;52.350;6.684;2023-05-10T03:51:58;51.97;;;25.38;;
19339;SDS011;9804;52.350;6.684;2023-05-10T03:54:24;49.65;;;22.85;;
19339;SDS011;9804;52.350;6.684;2023-05-10T03:56:49;53.88;;;25.08;;
19339;SDS011;9804;52.350;6.684;2023-05-10T03:59:14;56.45;;;26.10;;
19339;SDS011;9804;52.350;6.684;2023-05-10T04:01:40;55.53;;;26.02;;
19339;SDS011;9804;52.350;6.684;2023-05-10T04:04:05;59.67;;;27.25;;
19339;SDS011;9804;52.350;6.684;2023-05-10T04:06:31;58.10;;;27.30;;
19339;SDS011;9804;52.350;6.684;2023-05-10T04:08:57;55.65;;;25.60;;
19339;SDS011;9804;52.350;6.684;2023-05-10T04:11:24;60.38;;;26.60;;
19339;SDS011;9804;52.350;6.684;2023-05-10T04:13:50;65.18;;;28.90;;
19339;SDS011;9804;52.350;6.684;2023-05-10T04:16:15;62.08;;;28.02;;
19339;SDS011;9804;52.350;6.684;2023-05-10T04:18:41;56.13;;;27.52;;
19339;SDS011;9804;52.350;6.684;2023-05-10T04:21:12;67.45;;;29.65;;
19339;SDS011;9804;52.350;6.684;2023-05-10T04:23:41;65.57;;;27.27;;
19339;SDS011;9804;52.350;6.684;2023-05-10T04:26:06;67.50;;;30.20;;
19339;SDS011;9804;52.350;6.684;2023-05-10T04:28:32;64.72;;;28.75;;
19339;SDS011;9804;52.350;6.684;2023-05-10T04:31:01;77.97;;;31.35;;
19339;SDS011;9804;52.350;6.684;2023-05-10T04:33:35;70.47;;;31.30;;
19339;SDS011;9804;52.350;6.684;2023-05-10T04:36:02;71.70;;;30.90;;
19339;SDS011;9804;52.350;6.684;2023-05-10T04:38:28;79.75;;;30.85;;
19339;SDS011;9804;52.350;6.684;2023-05-10T04:40:54;76.63;;;31.17;;
19339;SDS011;9804;52.350;6.684;2023-05-10T04:43:19;73.03;;;31.13;;
19339;SDS011;9804;52.350;6.684;2023-05-10T04:45:45;69.85;;;29.48;;
19339;SDS011;9804;52.350;6.684;2023-05-10T04:48:10;74.25;;;30.88;;
19339;SDS011;9804;52.350;6.684;2023-05-10T04:50:37;77.30;;;31.70;;
19339;SDS011;9804;52.350;6.684;2023-05-10T04:53:02;79.75;;;31.98;;
19339;SDS011;9804;52.350;6.684;2023-05-10T04:55:28;76.63;;;30.17;;
19339;SDS011;9804;52.350;6.684;2023-05-10T04:57:53;79.15;;;31.33;;
19339;SDS011;9804;52.350;6.684;2023-05-10T05:00:21;89.63;;;34.00;;
19339;SDS011;9804;52.350;6.684;2023-05-10T05:02:47;90.07;;;34.50;;
19339;SDS011;9804;52.350;6.684;2023-05-10T05:05:12;92.85;;;35.63;;
19339;SDS011;9804;52.350;6.684;2023-05-10T05:07:37;101.45;;;36.28;;
19339;SDS011;9804;52.350;6.684;2023-05-10T05:10:04;104.05;;;36.15;;
19339;SDS011;9804;52.350;6.684;2023-05-10T05:12:30;99.43;;;36.20;;
19339;SDS011;9804;52.350;6.684;2023-05-10T05:14:56;99.18;;;36.92;;
19339;SDS011;9804;52.350;6.684;2023-05-10T05:17:21;108.07;;;38.25;;
19339;SDS011;9804;52.350;6.684;2023-05-10T05:19:47;113.55;;;39.67;;
19339;SDS011;9804;52.350;6.684;2023-05-10T05:22:12;117.55;;;38.42;;
19339;SDS011;9804;52.350;6.684;2023-05-10T05:24:37;111.50;;;38.67;;
19339;SDS011;9804;52.350;6.684;2023-05-10T05:27:03;108.30;;;37.63;;
19339;SDS011;9804;52.350;6.684;2023-05-10T05:29:29;110.50;;;40.33;;
19339;SDS011;9804;52.350;6.684;2023-05-10T05:31:54;104.68;;;39.60;;
19339;SDS011;9804;52.350;6.684;2023-05-10T05:34:20;106.53;;;39.50;;
19339;SDS011;9804;52.350;6.684;2023-05-10T05:36:47;106.43;;;40.60;;
19339;SDS011;9804;52.350;6.684;2023-05-10T05:39:12;104.20;;;40.50;;
19339;SDS011;9804;52.350;6.684;2023-05-10T05:41:38;105.30;;;39.60;;
19339;SDS011;9804;52.350;6.684;2023-05-10T05:44:03;106.47;;;39.97;;
19339;SDS011;9804;52.350;6.684;2023-05-10T05:46:28;102.15;;;37.72;;
19339;SDS011;9804;52.350;6.684;2023-05-10T05:48:54;106.90;;;39.45;;
19339;SDS011;9804;52.350;6.684;2023-05-10T05:51:19;102.75;;;39.70;;
19339;SDS011;9804;52.350;6.684;2023-05-10T05:53:45;113.60;;;40.42;;
19339;SDS011;9804;52.350;6.684;2023-05-10T05:56:10;99.72;;;38.20;;
19339;SDS011;9804;52.350;6.684;2023-05-10T05:58:35;107.43;;;41.53;;
19339;SDS011;9804;52.350;6.684;2023-05-10T06:01:01;101.68;;;39.20;;
19339;SDS011;9804;52.350;6.684;2023-05-10T06:03:26;107.43;;;40.92;;
19339;SDS011;9804;52.350;6.684;2023-05-10T06:05:52;103.40;;;39.13;;
19339;SDS011;9804;52.350;6.684;2023-05-10T06:08:17;104.70;;;40.40;;
19339;SDS011;9804;52.350;6.684;2023-05-10T06:10:42;100.25;;;39.63;;
19339;SDS011;9804;52.350;6.684;2023-05-10T06:13:08;92.40;;;38.15;;
19339;SDS011;9804;52.350;6.684;2023-05-10T06:15:33;97.10;;;39.08;;
19339;SDS011;9804;52.350;6.684;2023-05-10T06:17:59;99.15;;;38.33;;
19339;SDS011;9804;52.350;6.684;2023-05-10T06:20:25;92.38;;;37.33;;
19339;SDS011;9804;52.350;6.684;2023-05-10T06:22:50;96.32;;;38.45;;
19339;SDS011;9804;52.350;6.684;2023-05-10T06:25:16;94.20;;;37.53;;
19339;SDS011;9804;52.350;6.684;2023-05-10T06:27:42;87.88;;;36.75;;
19339;SDS011;9804;52.350;6.684;2023-05-10T06:30:08;76.53;;;36.03;;
19339;SDS011;9804;52.350;6.684;2023-05-10T06:32:34;84.25;;;36.22;;
19339;SDS011;9804;52.350;6.684;2023-05-10T06:34:59;73.22;;;33.22;;
19339;SDS011;9804;52.350;6.684;2023-05-10T06:37:25;75.15;;;33.53;;
19339;SDS011;9804;52.350;6.684;2023-05-10T06:39:50;85.85;;;35.58;;
19339;SDS011;9804;52.350;6.684;2023-05-10T06:42:16;79.95;;;33.78;;
19339;SDS011;9804;52.350;6.684;2023-05-10T06:44:41;75.78;;;32.53;;
19339;SDS011;9804;52.350;6.684;2023-05-10T06:47:06;77.57;;;33.35;;
19339;SDS011;9804;52.350;6.684;2023-05-10T06:49:32;75.88;;;34.00;;
19339;SDS011;9804;52.350;6.684;2023-05-10T06:51:57;70.82;;;31.83;;
19339;SDS011;9804;52.350;6.684;2023-05-10T06:54:23;72.07;;;33.88;;
19339;SDS011;9804;52.350;6.684;2023-05-10T06:56:48;65.60;;;31.17;;
19339;SDS011;9804;52.350;6.684;2023-05-10T06:59:13;68.28;;;32.42;;
19339;SDS011;9804;52.350;6.684;2023-05-10T07:01:41;71.97;;;31.85;;
19339;SDS011;9804;52.350;6.684;2023-05-10T07:04:06;57.83;;;29.30;;
19339;SDS011;9804;52.350;6.684;2023-05-10T07:06:32;61.72;;;29.52;;
19339;SDS011;9804;52.350;6.684;2023-05-10T07:08:58;56.95;;;28.45;;
19339;SDS011;9804;52.350;6.684;2023-05-10T07:11:24;58.88;;;29.20;;
19339;SDS011;9804;52.350;6.684;2023-05-10T07:13:49;65.72;;;29.77;;
19339;SDS011;9804;52.350;6.684;2023-05-10T07:16:15;64.80;;;29.92;;
19339;SDS011;9804;52.350;6.684;2023-05-10T07:18:40;62.15;;;29.95;;
19339;SDS011;9804;52.350;6.684;2023-05-10T07:21:05;59.17;;;29.58;;
19339;SDS011;9804;52.350;6.684;2023-05-10T07:23:31;60.13;;;28.10;;
19339;SDS011;9804;52.350;6.684;2023-05-10T07:25:56;57.58;;;29.80;;
19339;SDS011;9804;52.350;6.684;2023-05-10T07:28:22;51.28;;;27.05;;
19339;SDS011;9804;52.350;6.684;2023-05-10T07:30:49;51.88;;;26.23;;
19339;SDS011;9804;52.350;6.684;2023-05-10T07:33:14;51.38;;;26.02;;
19339;SDS011;9804;52.350;6.684;2023-05-10T07:35:40;52.75;;;27.17;;
19339;SDS011;9804;52.350;6.684;2023-05-10T07:38:06;52.67;;;26.45;;
19339;SDS011;9804;52.350;6.684;2023-05-10T07:40:32;45.15;;;25.52;;
19339;SDS011;9804;52.350;6.684;2023-05-10T07:42:57;52.55;;;26.02;;
19339;SDS011;9804;52.350;6.684;2023-05-10T07:45:23;53.55;;;26.58;;
19339;SDS011;9804;52.350;6.684;2023-05-10T07:47:48;50.58;;;25.67;;
19339;SDS011;9804;52.350;6.684;2023-05-10T07:50:14;50.10;;;27.13;;
19339;SDS011;9804;52.350;6.684;2023-05-10T07:52:40;56.45;;;28.42;;
19339;SDS011;9804;52.350;6.684;2023-05-10T07:55:06;57.22;;;28.08;;
19339;SDS011;9804;52.350;6.684;2023-05-10T07:57:33;53.35;;;27.33;;
19339;SDS011;9804;52.350;6.684;2023-05-10T07:59:58;60.75;;;28.40;;
19339;SDS011;9804;52.350;6.684;2023-05-10T08:02:24;60.70;;;30.10;;
19339;SDS011;9804;52.350;6.684;2023-05-10T08:04:50;52.78;;;27.38;;
19339;SDS011;9804;52.350;6.684;2023-05-10T08:07:15;54.28;;;27.50;;
19339;SDS011;9804;52.350;6.684;2023-05-10T08:09:41;57.55;;;29.38;;
19339;SDS011;9804;52.350;6.684;2023-05-10T08:12:06;63.80;;;31.70;;
19339;SDS011;9804;52.350;6.684;2023-05-10T08:14:31;61.90;;;30.40;;
19339;SDS011;9804;52.350;6.684;2023-05-10T08:16:57;62.13;;;30.50;;
19339;SDS011;9804;52.350;6.684;2023-05-10T08:19:22;62.58;;;31.02;;
19339;SDS011;9804;52.350;6.684;2023-05-10T08:21:48;61.58;;;29.45;;
19339;SDS011;9804;52.350;6.684;2023-05-10T08:24:14;55.85;;;28.10;;
19339;SDS011;9804;52.350;6.684;2023-05-10T08:26:39;57.33;;;29.83;;
19339;SDS011;9804;52.350;6.684;2023-05-10T08:29:05;52.47;;;29.25;;
19339;SDS011;9804;52.350;6.684;2023-05-10T08:31:30;56.70;;;28.58;;
19339;SDS011;9804;52.350;6.684;2023-05-10T08:33:55;54.03;;;28.13;;
19339;SDS011;9804;52.350;6.684;2023-05-10T08:36:21;53.38;;;27.98;;
19339;SDS011;9804;52.350;6.684;2023-05-10T08:38:49;52.78;;;26.38;;
19339;SDS011;9804;52.350;6.684;2023-05-10T08:41:16;45.47;;;23.65;;
19339;SDS011;9804;52.350;6.684;2023-05-10T08:43:42;42.83;;;21.48;;
19339;SDS011;9804;52.350;6.684;2023-05-10T08:46:11;35.42;;;18.60;;
19339;SDS011;9804;52.350;6.684;2023-05-10T08:48:43;33.03;;;17.85;;
19339;SDS011;9804;52.350;6.684;2023-05-10T08:51:18;38.85;;;19.92;;
19339;SDS011;9804;52.350;6.684;2023-05-10T08:53:46;38.22;;;20.05;;
19339;SDS011;9804;52.350;6.684;2023-05-10T08:56:12;33.33;;;18.02;;
19339;SDS011;9804;52.350;6.684;2023-05-10T08:58:37;38.63;;;19.10;;
19339;SDS011;9804;52.350;6.684;2023-05-10T09:01:03;38.75;;;19.15;;
19339;SDS011;9804;52.350;6.684;2023-05-10T09:03:30;33.17;;;19.10;;
19339;SDS011;9804;52.350;6.684;2023-05-10T09:05:56;30.00;;;17.48;;
19339;SDS011;9804;52.350;6.684;2023-05-10T09:08:25;28.95;;;16.77;;
19339;SDS011;9804;52.350;6.684;2023-05-10T09:10:51;30.30;;;16.98;;
19339;SDS011;9804;52.350;6.684;2023-05-10T09:13:17;19.75;;;11.95;;
19339;SDS011;9804;52.350;6.684;2023-05-10T09:15:44;21.63;;;12.15;;
19339;SDS011;9804;52.350;6.684;2023-05-10T09:18:10;21.45;;;12.40;;
19339;SDS011;9804;52.350;6.684;2023-05-10T09:20:35;19.42;;;11.55;;
19339;SDS011;9804;52.350;6.684;2023-05-10T09:23:00;20.73;;;11.95;;
19339;SDS011;9804;52.350;6.684;2023-05-10T09:25:26;20.00;;;11.18;;
19339;SDS011;9804;52.350;6.684;2023-05-10T09:27:52;16.50;;;10.45;;
19339;SDS011;9804;52.350;6.684;2023-05-10T09:30:24;19.63;;;10.85;;
19339;SDS011;9804;52.350;6.684;2023-05-10T09:32:52;18.90;;;10.23;;
19339;SDS011;9804;52.350;6.684;2023-05-10T09:35:19;16.30;;;9.48;;
19339;SDS011;9804;52.350;6.684;2023-05-10T09:37:47;16.95;;;9.75;;
19339;SDS011;9804;52.350;6.684;2023-05-10T09:40:14;15.32;;;9.50;;
19339;SDS011;9804;52.350;6.684;2023-05-10T09:42:42;18.70;;;9.77;;
19339;SDS011;9804;52.350;6.684;2023-05-10T09:45:15;14.50;;;9.75;;
19339;SDS011;9804;52.350;6.684;2023-05-10T09:47:41;14.60;;;9.43;;
19339;SDS011;9804;52.350;6.684;2023-05-10T09:50:06;17.05;;;9.98;;
19339;SDS011;9804;52.350;6.684;2023-05-10T09:52:51;17.02;;;10.57;;
19339;SDS011;9804;52.350;6.684;2023-05-10T09:55:40;18.15;;;10.00;;
19339;SDS011;9804;52.350;6.684;2023-05-10T09:58:09;15.98;;;10.13;;
19339;SDS011;9804;52.350;6.684;2023-05-10T10:00:36;20.27;;;11.43;;
19339;SDS011;9804;52.350;6.684;2023-05-10T10:03:03;14.45;;;9.18;;
19339;SDS011;9804;52.350;6.684;2023-05-10T10:05:29;14.20;;;8.63;;
19339;SDS011;9804;52.350;6.684;2023-05-10T10:07:59;11.95;;;8.27;;
19339;SDS011;9804;52.350;6.684;2023-05-10T10:10:26;12.60;;;8.73;;
19339;SDS011;9804;52.350;6.684;2023-05-10T10:12:52;12.50;;;8.52;;
19339;SDS011;9804;52.350;6.684;2023-05-10T10:15:18;13.40;;;9.13;;
19339;SDS011;9804;52.350;6.684;2023-05-10T10:17:45;17.08;;;9.93;;
19339;SDS011;9804;52.350;6.684;2023-05-10T10:20:12;17.42;;;10.70;;
19339;SDS011;9804;52.350;6.684;2023-05-10T10:22:38;17.33;;;10.30;;
19339;SDS011;9804;52.350;6.684;2023-05-10T10:25:04;14.40;;;10.00;;
19339;SDS011;9804;52.350;6.684;2023-05-10T10:27:39;17.00;;;10.70;;
19339;SDS011;9804;52.350;6.684;2023-05-10T10:30:25;18.05;;;10.85;;
19339;SDS011;9804;52.350;6.684;2023-05-10T10:35:28;13.60;;;9.40;;
19339;SDS011;9804;52.350;6.684;2023-05-10T10:37:55;12.55;;;8.00;;
19339;SDS011;9804;52.350;6.684;2023-05-10T10:40:25;16.20;;;9.00;;
19339;SDS011;9804;52.350;6.684;2023-05-10T10:42:54;10.48;;;7.13;;
19339;SDS011;9804;52.350;6.684;2023-05-10T10:45:21;11.57;;;7.45;;
19339;SDS011;9804;52.350;6.684;2023-05-10T10:47:47;10.98;;;7.20;;
19339;SDS011;9804;52.350;6.684;2023-05-10T10:50:13;10.55;;;6.78;;
19339;SDS011;9804;52.350;6.684;2023-05-10T10:52:39;9.80;;;6.47;;
19339;SDS011;9804;52.350;6.684;2023-05-10T11:00:28;10.70;;;6.82;;
19339;SDS011;9804;52.350;6.684;2023-05-10T11:02:59;12.02;;;7.00;;
19339;SDS011;9804;52.350;6.684;2023-05-10T11:08:10;14.55;;;6.85;;
19339;SDS011;9804;52.350;6.684;2023-05-10T11:10:39;12.57;;;7.18;;
19339;SDS011;9804;52.350;6.684;2023-05-10T11:13:13;8.98;;;6.90;;
19339;SDS011;9804;52.350;6.684;2023-05-10T11:15:39;9.63;;;6.72;;
19339;SDS011;9804;52.350;6.684;2023-05-10T11:18:18;9.38;;;6.30;;
19339;SDS011;9804;52.350;6.684;2023-05-10T11:20:59;8.20;;;5.47;;
19339;SDS011;9804;52.350;6.684;2023-05-10T11:24:12;7.15;;;5.18;;
19339;SDS011;9804;52.350;6.684;2023-05-10T11:26:21;9.52;;;5.88;;
19339;SDS011;9804;52.350;6.684;2023-05-10T11:28:50;9.02;;;5.97;;
19339;SDS011;9804;52.350;6.684;2023-05-10T11:31:17;11.35;;;6.35;;
19339;SDS011;9804;52.350;6.684;2023-05-10T11:33:47;10.60;;;6.65;;
19339;SDS011;9804;52.350;6.684;2023-05-10T11:36:14;12.45;;;6.38;;
19339;SDS011;9804;52.350;6.684;2023-05-10T11:38:40;9.55;;;6.40;;
19339;SDS011;9804;52.350;6.684;2023-05-10T11:41:08;8.75;;;6.20;;
19339;SDS011;9804;52.350;6.684;2023-05-10T11:43:35;12.73;;;7.18;;
19339;SDS011;9804;52.350;6.684;2023-05-10T11:46:03;9.43;;;6.45;;
19339;SDS011;9804;52.350;6.684;2023-05-10T11:48:32;12.18;;;7.18;;
19339;SDS011;9804;52.350;6.684;2023-05-10T11:50:57;14.00;;;8.55;;
19339;SDS011;9804;52.350;6.684;2023-05-10T11:53:25;13.57;;;8.52;;
19339;SDS011;9804;52.350;6.684;2023-05-10T11:55:52;12.98;;;8.38;;
19339;SDS011;9804;52.350;6.684;2023-05-10T11:58:17;12.77;;;6.88;;
19339;SDS011;9804;52.350;6.684;2023-05-10T12:00:43;11.07;;;6.45;;
19339;SDS011;9804;52.350;6.684;2023-05-10T12:03:10;11.23;;;6.45;;
19339;SDS011;9804;52.350;6.684;2023-05-10T12:05:36;10.48;;;5.78;;
19339;SDS011;9804;52.350;6.684;2023-05-10T12:08:15;8.95;;;5.90;;
19339;SDS011;9804;52.350;6.684;2023-05-10T12:10:44;11.50;;;6.28;;
19339;SDS011;9804;52.350;6.684;2023-05-10T12:13:13;8.55;;;5.70;;
19339;SDS011;9804;52.350;6.684;2023-05-10T12:15:40;9.27;;;5.70;;
19339;SDS011;9804;52.350;6.684;2023-05-10T12:18:05;11.23;;;6.13;;
19339;SDS011;9804;52.350;6.684;2023-05-10T12:20:33;8.98;;;6.55;;
19339;SDS011;9804;52.350;6.684;2023-05-10T12:22:58;9.30;;;6.70;;
19339;SDS011;9804;52.350;6.684;2023-05-10T12:25:29;9.43;;;6.35;;
19339;SDS011;9804;52.350;6.684;2023-05-10T12:27:57;9.57;;;6.70;;
19339;SDS011;9804;52.350;6.684;2023-05-10T12:30:26;12.27;;;7.40;;
19339;SDS011;9804;52.350;6.684;2023-05-10T12:32:53;8.75;;;5.95;;
19339;SDS011;9804;52.350;6.684;2023-05-10T12:35:25;9.52;;;6.32;;
19339;SDS011;9804;52.350;6.684;2023-05-10T12:37:51;6.22;;;4.70;;
19339;SDS011;9804;52.350;6.684;2023-05-10T12:40:16;7.40;;;5.13;;
19339;SDS011;9804;52.350;6.684;2023-05-10T12:42:42;6.20;;;4.93;;
19339;SDS011;9804;52.350;6.684;2023-05-10T12:45:10;11.35;;;5.60;;
19339;SDS011;9804;52.350;6.684;2023-05-10T12:47:36;8.40;;;5.50;;
19339;SDS011;9804;52.350;6.684;2023-05-10T12:50:02;9.30;;;6.40;;
19339;SDS011;9804;52.350;6.684;2023-05-10T12:52:28;10.85;;;6.38;;
19339;SDS011;9804;52.350;6.684;2023-05-10T12:54:53;11.93;;;6.60;;
19339;SDS011;9804;52.350;6.684;2023-05-10T12:57:22;7.93;;;5.50;;
19339;SDS011;9804;52.350;6.684;2023-05-10T12:59:48;7.43;;;5.68;;
19339;SDS011;9804;52.350;6.684;2023-05-10T13:02:13;6.93;;;5.03;;
19339;SDS011;9804;52.350;6.684;2023-05-10T13:04:39;7.97;;;5.63;;
19339;SDS011;9804;52.350;6.684;2023-05-10T13:07:06;8.27;;;6.13;;
19339;SDS011;9804;52.350;6.684;2023-05-10T13:09:32;7.57;;;5.30;;
19339;SDS011;9804;52.350;6.684;2023-05-10T13:11:57;7.20;;;5.80;;
19339;SDS011;9804;52.350;6.684;2023-05-10T13:14:22;7.80;;;4.75;;
19339;SDS011;9804;52.350;6.684;2023-05-10T13:16:50;6.60;;;4.35;;
19339;SDS011;9804;52.350;6.684;2023-05-10T13:19:15;5.05;;;3.92;;
19339;SDS011;9804;52.350;6.684;2023-05-10T13:21:41;7.78;;;4.70;;
19339;SDS011;9804;52.350;6.684;2023-05-10T13:24:07;5.97;;;4.35;;
19339;SDS011;9804;52.350;6.684;2023-05-10T13:26:33;4.60;;;3.83;;
19339;SDS011;9804;52.350;6.684;2023-05-10T13:28:58;6.07;;;3.90;;
19339;SDS011;9804;52.350;6.684;2023-05-10T13:31:23;4.75;;;3.33;;
19339;SDS011;9804;52.350;6.684;2023-05-10T13:33:49;4.68;;;3.85;;
19339;SDS011;9804;52.350;6.684;2023-05-10T13:36:14;5.57;;;4.57;;
19339;SDS011;9804;52.350;6.684;2023-05-10T13:38:40;7.05;;;4.18;;
19339;SDS011;9804;52.350;6.684;2023-05-10T13:41:05;5.85;;;4.55;;
19339;SDS011;9804;52.350;6.684;2023-05-10T13:43:30;6.90;;;4.68;;
19339;SDS011;9804;52.350;6.684;2023-05-10T13:45:56;6.43;;;4.25;;
19339;SDS011;9804;52.350;6.684;2023-05-10T13:48:21;8.48;;;4.45;;
19339;SDS011;9804;52.350;6.684;2023-05-10T13:50:47;5.78;;;4.32;;
19339;SDS011;9804;52.350;6.684;2023-05-10T13:53:12;6.68;;;4.47;;
19339;SDS011;9804;52.350;6.684;2023-05-10T13:55:39;6.50;;;4.82;;
19339;SDS011;9804;52.350;6.684;2023-05-10T13:58:04;7.82;;;5.07;;
19339;SDS011;9804;52.350;6.684;2023-05-10T14:00:30;7.45;;;5.30;;
19339;SDS011;9804;52.350;6.684;2023-05-10T14:02:55;8.73;;;5.78;;
19339;SDS011;9804;52.350;6.684;2023-05-10T14:05:21;9.30;;;5.82;;
19339;SDS011;9804;52.350;6.684;2023-05-10T14:07:46;10.88;;;6.13;;
19339;SDS011;9804;52.350;6.684;2023-05-10T14:10:12;8.32;;;5.68;;
19339;SDS011;9804;52.350;6.684;2023-05-10T14:12:37;11.98;;;6.53;;
19339;SDS011;9804;52.350;6.684;2023-05-10T14:15:03;10.00;;;6.07;;
19339;SDS011;9804;52.350;6.684;2023-05-10T14:17:30;10.60;;;6.35;;
19339;SDS011;9804;52.350;6.684;2023-05-10T14:19:56;9.90;;;7.47;;
19339;SDS011;9804;52.350;6.684;2023-05-10T14:22:21;9.68;;;6.72;;
19339;SDS011;9804;52.350;6.684;2023-05-10T14:24:47;13.13;;;7.57;;
19339;SDS011;9804;52.350;6.684;2023-05-10T14:27:13;14.90;;;8.18;;
19339;SDS011;9804;52.350;6.684;2023-05-10T14:29:39;11.90;;;6.85;;
19339;SDS011;9804;52.350;6.684;2023-05-10T14:32:04;12.57;;;6.75;;
19339;SDS011;9804;52.350;6.684;2023-05-10T14:34:29;10.65;;;6.60;;
19339;SDS011;9804;52.350;6.684;2023-05-10T14:36:55;10.95;;;7.55;;
19339;SDS011;9804;52.350;6.684;2023-05-10T14:39:21;10.98;;;7.47;;
19339;SDS011;9804;52.350;6.684;2023-05-10T14:41:47;15.70;;;8.00;;
19339;SDS011;9804;52.350;6.684;2023-05-10T14:44:13;10.98;;;7.57;;
19339;SDS011;9804;52.350;6.684;2023-05-10T14:46:38;10.38;;;7.38;;
19339;SDS011;9804;52.350;6.684;2023-05-10T14:49:04;12.85;;;8.23;;
19339;SDS011;9804;52.350;6.684;2023-05-10T14:51:29;13.25;;;8.60;;
19339;SDS011;9804;52.350;6.684;2023-05-10T14:53:55;13.38;;;8.63;;
19339;SDS011;9804;52.350;6.684;2023-05-10T14:56:21;10.25;;;7.85;;
19339;SDS011;9804;52.350;6.684;2023-05-10T14:58:47;13.57;;;8.25;;
19339;SDS011;9804;52.350;6.684;2023-05-10T15:01:12;12.02;;;7.47;;
19339;SDS011;9804;52.350;6.684;2023-05-10T15:03:37;10.48;;;7.82;;
19339;SDS011;9804;52.350;6.684;2023-05-10T15:06:03;12.77;;;7.78;;
19339;SDS011;9804;52.350;6.684;2023-05-10T15:08:29;12.60;;;7.25;;